Time;durP1;ratioP1;P1;durP2;ratioP2;P2;SDS_P1;SDS_P2;PMS_P1;PMS_P2;Temp;Humidity;BMP_temperature;BMP_pressure;BME280_temperature;BME280_humidity;BME280_pressure;Samples;Min_cycle;Max_cycle;Signal;HPM_P1;HPM_P2
2021/04/07 00:00:28;;;;;;;0.80;0.80;;;;;;;-1.01;74.25;96390.47;29990;227;6000;-59
2021/04/07 00:00:59;;;;;;;0.77;0.77;;;;;;;-1.12;74.96;96389.44;29990;199;6005;-60
2021/04/07 00:01:30;;;;;;;0.80;0.80;;;;;;;-1.12;74.93;96383.31;29991;219;6000;-58
2021/04/07 00:02:00;;;;;;;0.80;0.80;;;;;;;-1.17;75.09;96393.84;29991;218;6005;-58
2021/04/07 00:02:31;;;;;;;0.80;0.80;;;;;;;-1.22;75.54;96380.41;29990;486;6000;-59
2021/04/07 00:03:05;;;;;;;0.80;0.80;;;;;;;-1.19;75.52;96391.41;29990;300;6004;-59
2021/04/07 00:03:36;;;;;;;0.80;0.80;;;;;;;-1.22;75.77;96394.53;29990;197;6008;-59
2021/04/07 00:04:07;;;;;;;0.80;0.80;;;;;;;-1.24;75.91;96390.47;29991;218;6004;-58
2021/04/07 00:04:37;;;;;;;0.80;0.80;;;;;;;-1.16;75.66;96395.47;29990;223;6000;-61
2021/04/07 00:05:14;;;;;;;0.80;0.80;;;;;;;-1.14;75.17;96396.03;29989;208;6004;-61
2021/04/07 00:05:45;;;;;;;0.80;0.80;;;;;;;-1.05;75.05;96394.66;29990;219;6000;-59
2021/04/07 00:06:16;;;;;;;0.80;0.80;;;;;;;-0.99;74.46;96390.25;29991;224;6004;-58
2021/04/07 00:06:46;;;;;;;0.77;0.77;;;;;;;-1.06;74.50;96393.03;29990;430;6000;-58
2021/04/07 00:07:17;;;;;;;0.80;0.80;;;;;;;-1.15;74.39;96391.75;29990;202;6004;-59
2021/04/07 00:07:50;;;;;;;0.80;0.80;;;;;;;-1.21;74.97;96398.00;29990;225;6000;-59
2021/04/07 00:08:25;;;;;;;0.95;0.95;;;;;;;-1.12;74.63;96383.31;29990;385;6005;-60
2021/04/07 00:08:56;;;;;;;0.90;0.90;;;;;;;-1.07;74.54;96396.75;29990;523;6000;-59
2021/04/07 00:09:27;;;;;;;0.85;0.85;;;;;;;-1.12;74.39;96392.09;29991;796;6005;-60
2021/04/07 00:09:59;;;;;;;0.80;0.80;;;;;;;-1.14;74.83;96388.87;29990;262;6000;-58
2021/04/07 00:10:37;;;;;;;0.80;0.80;;;;;;;-1.18;75.26;96400.19;29991;558;6004;-60
2021/04/07 00:11:08;;;;;;;0.80;0.80;;;;;;;-1.17;75.11;96391.97;29989;222;6011;-59
2021/04/07 00:11:39;;;;;;;0.80;0.80;;;;;;;-1.25;75.49;96402.16;29990;585;6004;-60
2021/04/07 00:12:10;;;;;;;0.80;0.80;;;;;;;-1.23;75.46;96392.09;29991;724;6000;-57
2021/04/07 00:12:42;;;;;;;0.80;0.80;;;;;;;-1.27;75.56;96396.25;29990;695;6004;-59
2021/04/07 00:13:14;;;;;;;0.80;0.80;;;;;;;-1.29;75.76;96393.00;29991;212;6000;-58
2021/04/07 00:13:45;;;;;;;0.80;0.80;;;;;;;-1.29;75.94;96393.00;29991;400;6004;-59
2021/04/07 00:14:16;;;;;;;0.80;0.80;;;;;;;-1.24;75.74;96395.78;29990;493;6000;-61
2021/04/07 00:14:47;;;;;;;0.80;0.80;;;;;;;-1.19;75.83;96393.25;29990;202;6004;-59
2021/04/07 00:15:23;;;;;;;0.80;0.80;;;;;;;-1.18;75.75;96394.88;29991;533;6000;-59
2021/04/07 00:15:54;;;;;;;1.37;1.35;;;;;;;-1.16;75.75;96395.47;29991;216;6005;-58
2021/04/07 00:16:25;;;;;;;0.80;0.80;;;;;;;-1.17;75.65;96397.31;29991;194;6000;-59
2021/04/07 00:16:55;;;;;;;0.80;0.80;;;;;;;-1.09;75.23;96388.19;29990;202;6005;-59
2021/04/07 00:17:26;;;;;;;0.70;0.70;;;;;;;-1.01;74.80;96390.47;29991;214;6000;-57
2021/04/07 00:17:57;;;;;;;0.80;0.80;;;;;;;-1.05;74.88;96400.00;29990;225;6004;-60
2021/04/07 00:18:28;;;;;;;0.80;0.80;;;;;;;-1.01;75.06;96390.47;29990;224;6000;-62
2021/04/07 00:18:58;;;;;;;0.80;0.80;;;;;;;-1.00;74.79;96397.41;29991;198;6004;-59
2021/04/07 00:19:29;;;;;;;0.80;0.80;;;;;;;-1.01;74.47;96391.28;29990;202;6000;-60
2021/04/07 00:20:10;;;;;;;0.80;0.80;;;;;;;-1.06;74.67;96393.03;29990;200;6004;-59
2021/04/07 00:20:41;;;;;;;0.80;0.80;;;;;;;-1.15;75.41;96397.91;29991;469;6000;-61
2021/04/07 00:21:12;;;;;;;0.80;0.80;;;;;;;-1.21;75.55;96395.34;29989;227;6004;-58
2021/04/07 00:21:43;;;;;;;0.80;0.80;;;;;;;-1.25;75.78;96404.81;29990;199;6000;-59
2021/04/07 00:22:14;;;;;;;0.80;0.80;;;;;;;-1.22;75.97;96402.50;29990;198;6004;-59
2021/04/07 00:22:45;;;;;;;0.80;0.80;;;;;;;-1.25;76.01;96399.50;29990;823;6000;-58
2021/04/07 00:23:15;;;;;;;0.80;0.80;;;;;;;-1.29;75.98;96403.66;29990;303;6005;-59
2021/04/07 00:23:46;;;;;;;0.80;0.80;;;;;;;-1.32;76.29;96404.13;29990;690;6000;-59
2021/04/07 00:24:17;;;;;;;0.80;0.80;;;;;;;-1.26;76.40;96404.00;29989;228;6005;-59
2021/04/07 00:24:48;;;;;;;0.80;0.80;;;;;;;-1.24;76.12;96395.78;29991;203;6000;-60
2021/04/07 00:25:20;;;;;;;0.80;0.80;;;;;;;-1.07;75.65;96405.53;29990;212;6005;-60
2021/04/07 00:25:51;;;;;;;0.80;0.80;;;;;;;-1.03;74.94;96408.53;29990;624;6000;-60
2021/04/07 00:26:22;;;;;;;0.80;0.80;;;;;;;-1.04;75.10;96396.28;29990;303;6004;-60
2021/04/07 00:26:53;;;;;;;0.80;0.80;;;;;;;-1.15;75.50;96405.06;29991;729;6000;-59
2021/04/07 00:27:27;;;;;;;0.80;0.80;;;;;;;-1.19;75.74;96403.91;29990;668;6004;-58
2021/04/07 00:28:01;;;;;;;0.80;0.80;;;;;;;-1.18;76.18;96410.84;29990;199;6000;-59
2021/04/07 00:28:33;;;;;;;0.73;0.73;;;;;;;-1.17;75.86;96407.16;29990;340;6004;-58
2021/04/07 00:29:04;;;;;;;0.80;0.80;;;;;;;-1.19;75.69;96403.91;29990;560;6000;-60
2021/04/07 00:29:35;;;;;;;0.80;0.80;;;;;;;-1.15;75.61;96408.53;29990;828;6000;-60
2021/04/07 00:30:08;;;;;;;0.80;0.80;;;;;;;-1.09;75.40;96415.62;29990;216;6000;-59
2021/04/07 00:30:39;;;;;;;0.80;0.80;;;;;;;-1.05;75.12;96415.97;29990;197;6000;-58
2021/04/07 00:31:09;;;;;;;0.77;0.77;;;;;;;-1.09;75.22;96415.62;29990;216;6000;-59
2021/04/07 00:31:40;;;;;;;0.80;0.80;;;;;;;-1.17;75.50;96407.16;29990;205;6005;-58
2021/04/07 00:32:12;;;;;;;0.80;0.80;;;;;;;-1.26;75.98;96413.84;29990;211;6000;-59
2021/04/07 00:32:42;;;;;;;0.80;0.80;;;;;;;-1.32;76.18;96414.75;29991;197;6005;-58
2021/04/07 00:33:15;;;;;;;0.80;0.80;;;;;;;-1.37;76.46;96416.25;29991;227;6000;-59
2021/04/07 00:33:45;;;;;;;0.77;0.77;;;;;;;-1.36;76.58;96409.88;29990;276;6004;-57
2021/04/07 00:34:16;;;;;;;0.80;0.80;;;;;;;-1.32;77.08;96412.09;29990;204;6000;-60
2021/04/07 00:34:46;;;;;;;0.80;0.80;;;;;;;-1.20;76.24;96407.59;29990;608;6004;-58
2021/04/07 00:35:17;;;;;;;0.70;0.70;;;;;;;-1.18;75.85;96410.84;29990;196;6000;-59
2021/04/07 00:35:47;;;;;;;0.80;0.80;;;;;;;-1.06;75.73;96419.66;29990;306;6004;-59
2021/04/07 00:36:18;;;;;;;0.80;0.80;;;;;;;-0.91;74.70;96412.00;29990;205;6000;-65
2021/04/07 00:36:48;;;;;;;0.80;0.80;;;;;;;-0.86;73.88;96417.47;29991;550;6004;-58
2021/04/07 00:37:19;;;;;;;0.80;0.80;;;;;;;-0.80;73.39;96413.88;29990;329;6000;-59
2021/04/07 00:37:51;;;;;;;0.80;0.80;;;;;;;-0.75;73.22;96419.31;29991;209;6005;-60
2021/04/07 00:38:21;;;;;;;0.80;0.80;;;;;;;-0.70;72.83;96414.09;29991;231;6000;-58
2021/04/07 00:38:52;;;;;;;0.80;0.80;;;;;;;-0.74;73.04;96407.62;29990;284;6005;-59
2021/04/07 00:39:22;;;;;;;0.80;0.80;;;;;;;-0.80;73.33;96413.88;29990;385;6000;-60
2021/04/07 00:39:53;;;;;;;0.80;0.80;;;;;;;-0.81;73.18;96409.59;29990;216;6004;-59
2021/04/07 00:40:24;;;;;;;0.80;0.80;;;;;;;-0.91;74.28;96414.66;29990;230;6000;-58
2021/04/07 00:40:55;;;;;;;0.80;0.80;;;;;;;-1.00;74.45;96416.06;29990;541;6004;-59
2021/04/07 00:41:26;;;;;;;0.80;0.80;;;;;;;-1.08;74.89;96419.91;29991;587;6000;-59
2021/04/07 00:42:04;;;;;;;0.75;0.75;;;;;;;-1.08;75.52;96425.22;29990;406;6004;-59
2021/04/07 00:42:37;;;;;;;0.80;0.80;;;;;;;-1.06;75.40;96425.00;29991;318;6000;-59
2021/04/07 00:43:08;;;;;;;0.80;0.80;;;;;;;-1.02;74.97;96416.28;29990;758;6004;-55
2021/04/07 00:43:39;;;;;;;0.80;0.80;;;;;;;-1.08;75.19;96411.09;29990;510;6000;-56
2021/04/07 00:44:10;;;;;;;0.80;0.80;;;;;;;-1.09;75.23;96418.28;29989;756;6004;-58
2021/04/07 00:44:41;;;;;;;0.80;0.80;;;;;;;-1.04;75.48;96422.91;29990;223;6000;-59
2021/04/07 00:45:13;;;;;;;0.80;0.80;;;;;;;-1.01;75.20;96427.75;29990;204;6005;-59
2021/04/07 00:45:44;;;;;;;0.80;0.80;;;;;;;-1.00;74.67;96424.03;29991;202;6000;-59
2021/04/07 00:46:15;;;;;;;0.80;0.80;;;;;;;-1.05;74.99;96419.44;29991;224;6005;-59
2021/04/07 00:46:46;;;;;;;1.23;1.23;;;;;;;-1.04;75.06;96421.03;29990;205;6000;-59
2021/04/07 00:47:19;;;;;;;0.80;0.80;;;;;;;-0.98;74.84;96427.28;29990;223;6004;-59
2021/04/07 00:47:51;;;;;;;0.80;0.80;;;;;;;-1.00;74.78;96426.72;29990;200;6000;-57
2021/04/07 00:48:22;;;;;;;0.80;0.80;;;;;;;-1.07;74.96;96424.19;29990;216;6004;-59
2021/04/07 00:48:53;;;;;;;0.80;0.80;;;;;;;-1.08;75.51;96432.41;29990;210;6000;-59
2021/04/07 00:49:24;;;;;;;0.80;0.80;;;;;;;-1.12;75.50;96431.22;29990;532;6004;-58
2021/04/07 00:49:55;;;;;;;0.80;0.80;;;;;;;-1.15;75.69;96426.37;29990;276;6000;-59
2021/04/07 00:50:30;;;;;;;0.80;0.80;;;;;;;-1.08;75.72;96435.88;29991;536;6004;-59
2021/04/07 00:51:00;;;;;;;0.80;0.80;;;;;;;-0.95;74.95;96432.16;29990;492;6000;-59
2021/04/07 00:51:32;;;;;;;0.80;0.80;;;;;;;-0.96;74.68;96435.03;29989;758;6004;-58
2021/04/07 00:52:05;;;;;;;0.80;0.80;;;;;;;-1.05;74.74;96432.75;29991;659;6000;-60
2021/04/07 00:52:36;;;;;;;0.70;0.70;;;;;;;-1.16;74.92;96424.75;29990;197;6005;-59
2021/04/07 00:53:07;;;;;;;0.80;0.80;;;;;;;-1.18;75.27;96429.50;29990;262;6000;-60
2021/04/07 00:53:37;;;;;;;0.80;0.80;;;;;;;-1.21;75.87;96427.28;29989;769;6005;-56
2021/04/07 00:54:08;;;;;;;0.80;0.80;;;;;;;-1.26;76.10;96435.13;29990;229;6000;-59
2021/04/07 00:54:39;;;;;;;0.80;0.80;;;;;;;-1.29;76.57;96424.94;29990;415;6007;-58
2021/04/07 00:55:13;;;;;;;0.80;0.80;;;;;;;-1.35;76.99;96429.34;29990;342;6000;-58
2021/04/07 00:55:48;;;;;;;0.80;0.80;;;;;;;-1.26;76.76;96429.81;29990;197;6004;-60
2021/04/07 00:56:20;;;;;;;0.80;0.80;;;;;;;-1.09;75.78;96431.59;29990;580;6000;-61
2021/04/07 00:56:52;;;;;;;0.80;0.80;;;;;;;-1.05;75.28;96438.06;29989;494;6004;-59
2021/04/07 00:57:24;;;;;;;0.70;0.70;;;;;;;-0.92;74.70;96431.69;29990;220;6000;-60
2021/04/07 00:57:56;;;;;;;0.70;0.70;;;;;;;-0.88;74.79;96432.84;29990;568;6004;-59
2021/04/07 00:58:27;;;;;;;0.80;0.80;;;;;;;-0.85;74.29;96426.25;29991;199;6000;-59
2021/04/07 00:58:57;;;;;;;0.80;0.80;;;;;;;-0.90;74.45;96428.81;29990;225;6004;-60
2021/04/07 00:59:28;;;;;;;0.80;0.80;;;;;;;-0.85;74.50;96428.91;29991;462;6000;-61
2021/04/07 00:59:59;;;;;;;0.80;0.80;;;;;;;-0.85;74.09;96432.41;29990;289;6000;-59
2021/04/07 01:00:30;;;;;;;0.80;0.80;;;;;;;-0.92;74.15;96431.69;29990;233;6000;-59
2021/04/07 01:01:01;;;;;;;0.80;0.80;;;;;;;-0.99;74.56;96438.97;29990;253;6005;-60
2021/04/07 01:01:32;;;;;;;0.80;0.80;;;;;;;-0.95;74.72;96431.34;29990;222;6000;-60
2021/04/07 01:02:03;;;;;;;0.80;0.80;;;;;;;-0.92;74.19;96431.69;29989;336;6005;-59
2021/04/07 01:02:34;;;;;;;0.70;0.70;;;;;;;-0.95;74.28;96432.16;29990;380;6000;-56
2021/04/07 01:03:06;;;;;;;0.70;0.70;;;;;;;-0.97;74.29;96433.44;29989;353;6004;-60
2021/04/07 01:03:37;;;;;;;0.80;0.80;;;;;;;-0.99;74.68;96441.66;29990;199;6007;-59
2021/04/07 01:04:09;;;;;;;0.80;0.80;;;;;;;-0.91;74.52;96435.97;29990;229;6004;-59
2021/04/07 01:04:40;;;;;;;0.80;0.80;;;;;;;-0.97;74.40;96442.22;29990;299;6000;-58
2021/04/07 01:05:12;;;;;;;0.80;0.80;;;;;;;-0.87;74.05;96441.66;29990;226;6004;-59
2021/04/07 01:05:44;;;;;;;0.82;0.82;;;;;;;-0.85;73.67;96442.25;29990;455;6000;-58
2021/04/07 01:06:14;;;;;;;0.80;0.80;;;;;;;-0.83;73.38;96435.63;29989;208;6004;-59
2021/04/07 01:06:47;;;;;;;0.80;0.80;;;;;;;-0.85;73.14;96432.41;29990;233;6009;-59
2021/04/07 01:07:18;;;;;;;1.55;1.33;;;;;;;-0.80;73.16;96445.03;29990;252;6004;-59
2021/04/07 01:07:48;;;;;;;0.75;0.75;;;;;;;-0.79;72.68;96444.78;29990;422;6000;-58
2021/04/07 01:08:20;;;;;;;0.80;0.80;;;;;;;-0.87;73.25;96442.47;29991;436;6005;-58
2021/04/07 01:08:51;;;;;;;1.25;1.25;;;;;;;-0.91;73.50;96443.97;29990;520;6000;-61
2021/04/07 01:09:21;;;;;;;0.80;0.80;;;;;;;-0.89;73.32;96447.22;29989;281;6005;-62
2021/04/07 01:09:52;;;;;;;0.80;0.80;;;;;;;-0.88;72.94;96443.50;29990;541;6000;-60
2021/04/07 01:10:23;;;;;;;0.80;0.80;;;;;;;-0.90;72.84;96445.59;29990;248;6004;-59
2021/04/07 01:10:54;;;;;;;0.80;0.80;;;;;;;-0.87;73.28;96445.12;29990;737;6000;-60
2021/04/07 01:11:25;;;;;;;0.70;0.70;;;;;;;-0.89;73.20;96441.87;29990;224;6004;-61
2021/04/07 01:11:55;;;;;;;0.75;0.75;;;;;;;-0.89;73.21;96441.87;29990;222;6000;-59
2021/04/07 01:12:26;;;;;;;0.80;0.80;;;;;;;-0.83;73.04;96435.63;29990;725;6004;-61
2021/04/07 01:12:57;;;;;;;0.70;0.70;;;;;;;-0.82;72.98;96434.59;29990;230;6000;-58
2021/04/07 01:13:27;;;;;;;0.80;0.80;;;;;;;-0.83;72.99;96443.63;29990;273;6004;-59
2021/04/07 01:13:58;;;;;;;0.80;0.80;;;;;;;-0.85;73.16;96440.38;29990;370;6000;-61
2021/04/07 01:14:29;;;;;;;0.93;0.93;;;;;;;-0.84;73.06;96443.88;29991;218;6004;-58
2021/04/07 01:15:01;;;;;;;0.80;0.80;;;;;;;-0.93;73.27;96439.91;29990;199;6000;-61
2021/04/07 01:15:32;;;;;;;0.80;0.80;;;;;;;-1.03;73.63;96435.16;29991;660;6005;-60
2021/04/07 01:16:04;;;;;;;0.80;0.80;;;;;;;-1.16;74.15;96427.41;29989;493;6000;-59
2021/04/07 01:16:35;;;;;;;0.80;0.80;;;;;;;-1.07;74.31;96434.84;29991;222;6005;-58
2021/04/07 01:17:08;;;;;;;0.80;0.80;;;;;;;-1.04;74.17;96441.56;29989;507;6000;-60
2021/04/07 01:17:39;;;;;;;0.80;0.80;;;;;;;-0.98;73.31;96435.28;29991;196;6009;-59
2021/04/07 01:18:11;;;;;;;0.80;0.80;;;;;;;-0.98;73.32;96437.12;29990;351;6000;-60
2021/04/07 01:18:42;;;;;;;0.80;0.80;;;;;;;-1.01;73.22;96441.06;29990;383;6004;-60
2021/04/07 01:19:13;;;;;;;0.80;0.80;;;;;;;-1.09;73.75;96441.44;29990;310;6000;-60
2021/04/07 01:19:43;;;;;;;0.80;0.80;;;;;;;-1.16;74.20;96430.88;29990;210;6004;-60
2021/04/07 01:20:20;;;;;;;0.80;0.80;;;;;;;-1.13;73.87;96441.06;29990;196;6000;-60
2021/04/07 01:20:50;;;;;;;0.80;0.80;;;;;;;-1.18;73.99;96432.16;29990;729;6004;-60
2021/04/07 01:21:22;;;;;;;0.80;0.80;;;;;;;-1.17;74.22;96434.59;29990;662;6000;-59
2021/04/07 01:21:53;;;;;;;0.80;0.80;;;;;;;-1.16;74.24;96435.41;29990;914;6004;-61
2021/04/07 01:22:26;;;;;;;0.80;0.80;;;;;;;-1.17;74.45;96441.75;29990;207;6000;-60
2021/04/07 01:23:01;;;;;;;3.00;2.87;;;;;;;-1.20;74.65;96428.91;29990;398;6005;-59
2021/04/07 01:23:33;;;;;;;0.90;0.90;;;;;;;-1.10;74.42;96439.81;29989;196;6000;-63
2021/04/07 01:24:07;;;;;;;0.70;0.70;;;;;;;-1.08;73.42;96421.75;29989;497;6005;-58
2021/04/07 01:24:38;;;;;;;0.80;0.80;;;;;;;-0.96;73.16;96437.72;29990;477;6009;-60
2021/04/07 01:25:11;;;;;;;0.73;0.73;;;;;;;-0.94;73.14;96439.09;29990;237;6004;-62
2021/04/07 01:25:41;;;;;;;0.80;0.80;;;;;;;-0.90;72.50;96426.94;29990;208;6000;-60
2021/04/07 01:26:13;;;;;;;0.80;0.80;;;;;;;-0.89;72.43;96435.75;29990;214;6004;-61
2021/04/07 01:26:44;;;;;;;0.80;0.80;;;;;;;-0.83;71.88;96440.97;29990;711;6000;-59
2021/04/07 01:27:16;;;;;;;0.80;0.80;;;;;;;-0.90;72.13;96440.25;29989;199;6004;-59
2021/04/07 01:27:47;;;;;;;0.90;0.90;;;;;;;-0.95;72.24;96434.81;29990;916;6000;-59
2021/04/07 01:28:18;;;;;;;0.80;0.80;;;;;;;-1.04;72.76;96438.88;29989;197;6004;-59
2021/04/07 01:28:50;;;;;;;0.80;0.80;;;;;;;-1.16;73.22;96435.41;29990;282;6000;-59
2021/04/07 01:29:20;;;;;;;0.70;0.70;;;;;;;-1.24;73.65;96438.38;29990;197;6005;-59
2021/04/07 01:29:51;;;;;;;0.80;0.80;;;;;;;-1.28;74.08;96438.03;29990;274;6000;-59
2021/04/07 01:30:22;;;;;;;0.80;0.80;;;;;;;-1.33;74.38;96448.53;29991;441;6005;-60
2021/04/07 01:30:53;;;;;;;0.80;0.80;;;;;;;-1.39;74.72;96442.28;29990;583;6000;-58
2021/04/07 01:31:23;;;;;;;0.80;0.80;;;;;;;-1.36;74.78;96447.16;29990;762;6005;-58
2021/04/07 01:31:56;;;;;;;0.80;0.80;;;;;;;-1.29;74.74;96440.91;29990;204;6000;-61
2021/04/07 01:32:27;;;;;;;0.80;0.80;;;;;;;-1.18;73.96;96443.59;29990;841;6005;-61
2021/04/07 01:32:58;;;;;;;0.80;0.80;;;;;;;-1.07;73.36;96450.00;29990;202;6000;-59
2021/04/07 01:33:28;;;;;;;0.80;0.80;;;;;;;-1.03;73.14;96445.81;29989;218;6004;-60
2021/04/07 01:33:59;;;;;;;0.80;0.80;;;;;;;-1.00;72.71;96442.69;29990;503;6000;-60
2021/04/07 01:34:31;;;;;;;0.90;0.90;;;;;;;-1.04;72.66;96449.53;29989;278;6004;-62
2021/04/07 01:35:03;;;;;;;0.80;0.80;;;;;;;-1.06;72.56;96439.13;29990;348;6000;-60
2021/04/07 01:35:37;;;;;;;0.80;0.80;;;;;;;-1.15;73.07;96447.66;29990;730;6004;-59
2021/04/07 01:36:09;;;;;;;0.80;0.80;;;;;;;-1.16;73.13;96444.19;29990;198;6000;-62
2021/04/07 01:36:39;;;;;;;0.80;0.80;;;;;;;-1.12;72.85;96442.69;29990;607;6004;-60
2021/04/07 01:37:14;;;;;;;0.80;0.80;;;;;;;-1.09;72.89;96446.75;29991;700;6000;-60
2021/04/07 01:37:46;;;;;;;0.80;0.80;;;;;;;-1.13;73.09;96443.75;29991;875;6008;-60
2021/04/07 01:38:19;;;;;;;1.08;1.08;;;;;;;-1.04;72.62;96445.00;29990;777;6000;-63
2021/04/07 01:38:53;;;;;;;0.80;0.80;;;;;;;-1.08;72.27;96437.72;29989;197;6005;-60
2021/04/07 01:39:26;;;;;;;0.80;0.80;;;;;;;-1.14;72.93;96449.28;29990;532;6000;-60
2021/04/07 01:40:00;;;;;;;0.80;0.80;;;;;;;-1.18;73.02;96446.28;29990;720;6004;-59
2021/04/07 01:40:32;;;;;;;0.80;0.80;;;;;;;-1.18;73.30;96448.13;29990;196;6000;-59
2021/04/07 01:41:05;;;;;;;1.60;1.60;;;;;;;-1.14;73.21;96454.63;29990;762;6004;-61
2021/04/07 01:41:36;;;;;;;0.80;0.80;;;;;;;-1.09;72.74;96452.06;29990;815;6000;-60
2021/04/07 01:42:09;;;;;;;0.80;0.80;;;;;;;-1.06;72.40;96451.63;29990;199;6004;-59
2021/04/07 01:42:41;;;;;;;0.80;0.80;;;;;;;-1.04;72.26;96454.88;29991;212;6000;-60
2021/04/07 01:43:15;;;;;;;0.80;0.80;;;;;;;-1.12;72.45;96450.69;29990;887;6004;-62
2021/04/07 01:43:48;;;;;;;0.82;0.82;;;;;;;-1.12;72.39;96455.19;29990;670;6000;-61
2021/04/07 01:44:22;;;;;;;0.80;0.80;;;;;;;-1.19;72.64;96452.62;29990;766;6005;-61
2021/04/07 01:44:55;;;;;;;0.80;0.80;;;;;;;-1.19;72.69;96457.16;29991;381;6000;-58
2021/04/07 01:45:26;;;;;;;0.80;0.80;;;;;;;-1.18;72.77;96456.09;29990;395;6005;-59
2021/04/07 01:45:58;;;;;;;0.80;0.80;;;;;;;-1.16;73.09;96451.38;29990;197;6000;-63
2021/04/07 01:46:29;;;;;;;0.80;0.80;;;;;;;-1.18;72.92;96456.09;29991;372;6005;-59
2021/04/07 01:47:00;;;;;;;0.80;0.80;;;;;;;-1.16;73.06;96456.69;29990;465;6000;-59
2021/04/07 01:47:33;;;;;;;0.80;0.80;;;;;;;-1.12;72.84;96457.84;29990;228;6004;-59
2021/04/07 01:48:06;;;;;;;0.80;0.80;;;;;;;-1.17;72.98;96458.53;29990;713;6000;-61
2021/04/07 01:48:38;;;;;;;0.80;0.80;;;;;;;-1.18;73.22;96448.13;29990;215;6014;-60
2021/04/07 01:49:09;;;;;;;0.80;0.80;;;;;;;-1.24;73.46;96451.69;29990;197;6000;-59
2021/04/07 01:49:40;;;;;;;0.80;0.80;;;;;;;-1.30;73.68;96455.25;29990;359;6004;-61
2021/04/07 01:50:12;;;;;;;0.80;0.80;;;;;;;-1.38;73.95;96459.88;29991;428;6000;-59
2021/04/07 01:50:46;;;;;;;0.80;0.80;;;;;;;-1.41;74.40;96457.69;29990;583;6004;-59
2021/04/07 01:51:17;;;;;;;0.80;0.80;;;;;;;-1.39;74.40;96458.25;29990;850;6000;-60
2021/04/07 01:51:47;;;;;;;0.80;0.80;;;;;;;-1.41;74.48;96454.22;29990;204;6004;-58
2021/04/07 01:52:18;;;;;;;0.80;0.80;;;;;;;-1.33;74.15;96461.03;29991;197;6000;-59
2021/04/07 01:52:49;;;;;;;0.80;0.80;;;;;;;-1.32;73.49;96452.03;29989;289;6005;-59
2021/04/07 01:53:20;;;;;;;0.80;0.80;;;;;;;-1.28;73.60;96459.31;29990;202;6000;-63
2021/04/07 01:53:57;;;;;;;0.80;0.80;;;;;;;-1.27;73.50;96463.59;29990;671;6005;-61
2021/04/07 01:54:28;;;;;;;0.80;0.80;;;;;;;-1.29;73.96;96456.87;29990;561;6000;-62
2021/04/07 01:54:59;;;;;;;0.80;0.80;;;;;;;-1.30;74.16;96463.25;29990;634;6004;-59
2021/04/07 01:55:29;;;;;;;0.80;0.80;;;;;;;-1.31;73.93;96461.62;29991;375;6000;-59
2021/04/07 01:56:00;;;;;;;0.80;0.80;;;;;;;-1.29;73.65;96462.22;29990;275;6004;-61
2021/04/07 01:56:31;;;;;;;0.80;0.80;;;;;;;-1.32;73.81;96468.00;29990;196;6000;-59
2021/04/07 01:57:02;;;;;;;0.77;0.77;;;;;;;-1.33;73.79;96466.38;29990;910;6004;-61
2021/04/07 01:57:33;;;;;;;0.80;0.80;;;;;;;-1.27;73.55;96465.47;29990;649;6000;-61
2021/04/07 01:58:05;;;;;;;0.80;0.80;;;;;;;-1.24;73.05;96459.69;29991;755;6004;-63
2021/04/07 01:58:37;;;;;;;0.80;0.80;;;;;;;-1.16;72.46;96456.69;29990;197;6001;-60
2021/04/07 01:59:10;;;;;;;0.80;0.80;;;;;;;-1.14;72.08;96467.91;29990;338;6005;-61
2021/04/07 01:59:41;;;;;;;0.88;0.88;;;;;;;-1.07;71.98;96463.31;29991;504;6000;-60
2021/04/07 02:00:15;;;;;;;0.80;0.80;;;;;;;-1.03;71.90;96467.09;29990;577;6005;-59
2021/04/07 02:00:46;;;;;;;0.80;0.80;;;;;;;-1.01;71.76;96465.03;29989;197;6000;-61
2021/04/07 02:01:16;;;;;;;0.70;0.70;;;;;;;-1.08;71.78;96456.37;29990;204;6004;-59
2021/04/07 02:01:48;;;;;;;0.80;0.80;;;;;;;-1.13;72.18;96456.22;29990;655;6000;-59
2021/04/07 02:02:19;;;;;;;0.80;0.80;;;;;;;-1.09;71.95;96463.53;29990;534;6004;-61
2021/04/07 02:02:50;;;;;;;0.90;0.90;;;;;;;-0.98;71.20;96453.91;29990;468;6000;-62
2021/04/07 02:03:21;;;;;;;1.00;1.00;;;;;;;-0.93;70.81;96464.69;29990;521;6004;-60
2021/04/07 02:03:51;;;;;;;0.70;0.70;;;;;;;-1.02;70.91;96458.88;29991;715;6000;-60
2021/04/07 02:04:23;;;;;;;0.80;0.80;;;;;;;-1.12;71.33;96463.19;29990;428;6004;-59
2021/04/07 02:04:54;;;;;;;0.88;0.88;;;;;;;-1.17;72.01;96460.38;29990;192;6000;-60
2021/04/07 02:05:24;;;;;;;0.80;0.80;;;;;;;-1.19;71.74;96457.97;29990;259;6004;-60
2021/04/07 02:05:55;;;;;;;0.80;0.80;;;;;;;-1.21;72.07;96459.22;29989;277;6000;-59
2021/04/07 02:06:26;;;;;;;0.80;0.80;;;;;;;-1.27;72.50;96468.12;29991;203;6005;-60
2021/04/07 02:06:57;;;;;;;0.80;0.80;;;;;;;-1.29;72.92;96462.22;29990;737;6000;-60
2021/04/07 02:07:29;;;;;;;0.82;0.82;;;;;;;-1.24;72.43;96463.16;29990;202;6005;-60
2021/04/07 02:07:59;;;;;;;0.80;0.80;;;;;;;-1.15;71.85;96458.31;29989;483;6000;-59
2021/04/07 02:08:30;;;;;;;0.80;0.80;;;;;;;-1.19;72.14;96457.97;29989;716;6005;-59
2021/04/07 02:09:01;;;;;;;0.80;0.80;;;;;;;-1.26;72.14;96462.56;29991;206;6000;-60
2021/04/07 02:09:31;;;;;;;0.80;0.80;;;;;;;-1.24;72.39;96462.34;29990;760;6000;-60
2021/04/07 02:10:07;;;;;;;0.80;0.80;;;;;;;-1.20;72.04;96464.31;29990;253;6000;-60
2021/04/07 02:10:38;;;;;;;0.80;0.80;;;;;;;-1.15;72.04;96459.13;29990;410;6004;-59
2021/04/07 02:11:08;;;;;;;0.80;0.80;;;;;;;-1.17;72.08;96460.38;29990;721;6000;-61
2021/04/07 02:11:43;;;;;;;0.80;0.80;;;;;;;-1.24;72.33;96465.81;29991;714;6004;-59
2021/04/07 02:12:14;;;;;;;0.80;0.80;;;;;;;-1.22;72.39;96461.06;29990;196;6000;-61
2021/04/07 02:12:49;;;;;;;0.80;0.80;;;;;;;-1.23;72.49;96469.28;29990;196;6004;-61
2021/04/07 02:13:20;;;;;;;0.80;0.80;;;;;;;-1.30;72.27;96466.72;29990;424;6000;-59
2021/04/07 02:13:52;;;;;;;1.10;1.10;;;;;;;-1.33;72.75;96466.38;29990;518;6005;-59
2021/04/07 02:14:24;;;;;;;0.80;0.80;;;;;;;-1.38;73.00;96470.53;29990;197;6000;-60
2021/04/07 02:14:55;;;;;;;0.80;0.80;;;;;;;-1.44;73.51;96471.44;29991;666;6005;-59
2021/04/07 02:15:26;;;;;;;0.80;0.80;;;;;;;-1.49;73.54;96470.50;29991;759;6000;-61
2021/04/07 02:15:56;;;;;;;0.70;0.70;;;;;;;-1.53;73.68;96469.34;29990;225;6005;-61
2021/04/07 02:16:27;;;;;;;0.80;0.80;;;;;;;-1.54;74.13;96465.88;29991;238;6000;-61
2021/04/07 02:17:04;;;;;;;0.70;0.70;;;;;;;-1.55;74.21;96472.22;29991;735;6004;-60
2021/04/07 02:17:35;;;;;;;0.80;0.80;;;;;;;-1.50;74.12;96472.34;29989;398;6000;-60
2021/04/07 02:18:06;;;;;;;0.80;0.80;;;;;;;-1.48;73.57;96464.16;29991;491;6004;-60
2021/04/07 02:18:36;;;;;;;0.80;0.80;;;;;;;-1.44;73.84;96471.44;29990;214;6000;-61
2021/04/07 02:19:10;;;;;;;0.80;0.80;;;;;;;-1.30;72.72;96473.91;29990;723;6004;-60
2021/04/07 02:19:42;;;;;;;0.85;0.85;;;;;;;-1.24;72.40;96468.47;29990;222;6000;-60
2021/04/07 02:20:13;;;;;;;0.80;0.80;;;;;;;-1.22;72.28;96466.41;29991;420;6004;-59
2021/04/07 02:20:44;;;;;;;0.80;0.80;;;;;;;-1.26;72.38;96472.41;29990;698;6012;-59
2021/04/07 02:21:15;;;;;;;1.20;1.20;;;;;;;-1.29;72.45;96478.19;29990;793;6005;-59
2021/04/07 02:21:45;;;;;;;0.80;0.80;;;;;;;-1.25;72.55;96474.84;29989;520;6000;-61
2021/04/07 02:22:18;;;;;;;0.80;0.80;;;;;;;-1.27;72.38;96473.44;29990;456;6005;-59
2021/04/07 02:22:50;;;;;;;0.80;0.80;;;;;;;-1.36;72.50;96463.13;29991;351;6000;-60
2021/04/07 02:23:21;;;;;;;1.75;1.30;;;;;;;-1.33;72.60;96477.81;29990;197;6005;-61
2021/04/07 02:23:51;;;;;;;0.80;0.80;;;;;;;-1.32;72.34;96468.00;29990;197;6000;-59
2021/04/07 02:24:22;;;;;;;0.80;0.80;;;;;;;-1.27;72.42;96476.09;29990;200;6004;-61
2021/04/07 02:24:54;;;;;;;0.80;0.80;;;;;;;-1.24;71.82;96478.31;29990;683;6000;-60
2021/04/07 02:25:25;;;;;;;0.80;0.80;;;;;;;-1.16;71.50;96478.00;29990;427;6004;-60
2021/04/07 02:25:59;;;;;;;0.80;0.80;;;;;;;-1.18;71.38;96475.56;29990;547;6000;-60
2021/04/07 02:26:31;;;;;;;0.80;0.80;;;;;;;-1.20;71.84;96484.81;29990;340;6004;-59
2021/04/07 02:27:21;;;;;;;0.80;0.80;;;;;;;-1.24;71.98;96476.47;29990;293;6000;-58
2021/04/07 02:27:51;;;;;;;0.80;0.80;;;;;;;-1.18;71.93;96480.06;29990;599;6011;-60
2021/04/07 02:28:23;;;;;;;0.75;0.75;;;;;;;-1.12;71.24;96479.97;29990;692;6000;-60
2021/04/07 02:28:55;;;;;;;0.80;0.80;;;;;;;-1.09;71.16;96478.69;29990;419;6005;-59
2021/04/07 02:29:26;;;;;;;0.80;0.80;;;;;;;-1.21;71.43;96488.50;29990;202;6000;-60
2021/04/07 02:29:56;;;;;;;0.90;0.90;;;;;;;-1.26;72.06;96483.06;29990;371;6005;-59
2021/04/07 02:30:27;;;;;;;0.80;0.80;;;;;;;-1.26;72.24;96483.06;29989;464;6000;-62
2021/04/07 02:31:01;;;;;;;0.80;0.80;;;;;;;-1.21;71.73;96485.84;29990;257;6005;-59
2021/04/07 02:31:31;;;;;;;0.73;0.73;;;;;;;-1.20;71.58;96492.78;29990;461;6000;-62
2021/04/07 02:32:03;;;;;;;0.80;0.80;;;;;;;-1.23;71.59;96482.59;29990;334;6004;-61
2021/04/07 02:32:33;;;;;;;0.90;0.90;;;;;;;-1.31;71.83;96485.59;29990;267;6000;-59
2021/04/07 02:33:04;;;;;;;0.70;0.70;;;;;;;-1.30;72.01;96496.00;29990;360;6004;-60